Shelby, South Dakota
Current Conditions -  °F | °C
As of 6:20 PM on Wednesday 26 Nov 2014 (Local Time) from K9V9 Reporting Station
Overcast Overcast  
Wind Chill:   Ceiling: 3000
Heat Index: 16°   Visibility: 10mi
Dew Point:   Wind: 7mph
Humidity: 68%   Direction: 60°ENE
Pressure: 30.41"   Gusts: NA
Location:  43.7732°N, 99.1697°W
Report Text: K9V9 270020Z AUTO 06006KT 10SM BKN030 OVC035 M09/M14 A3041 RMK AO2 T10901139
Loading
Personal Weather Stations






























Interactive Weather Map New forecast layout! Learn more

10-Day Weather Forecast

Advertisements
Track Severe Weather on mobile